This is the latest recevied weather packets stored in our database for station/object WI5ARD. If no packets are shown the sender has not sent any weather packets the latest 10 day(s).
| Time | Temp. | Humidity | Pressure | Rain* | Wind** | Luminosity | Snow |
|---|---|---|---|---|---|---|---|
| 1777814139 | 12.78° C | 92% | 1023.8 hPa | 0 mm | - | 311 W/m² | - |
| 1777813236 | 12.22° C | 94% | 1023.7 hPa | 0 mm | - | 255 W/m² | - |
| 1777812920 | 11.67° C | 94% | 1023.5 hPa | 0 mm | - | 225 W/m² | - |
| 1777812336 | 11.11° C | 94% | 1023.3 hPa | 0 mm | - | 183 W/m² | - |
| 1777811720 | 10.56° C | 94% | 1023.2 hPa | 0 mm | - | 181 W/m² | - |
| 1777809020 | 8.89° C | 93% | 1023 hPa | 0 mm | - | 32 W/m² | - |
| 1777807220 | 8.89° C | 92% | 1022.7 hPa | 0 mm | - | 7 W/m² | - |
| 1777806037 | 8.89° C | 92% | 1022.8 hPa | 0 mm | - | 0 W/m² | - |
| 1777805420 | 8.89° C | 92% | 1022.5 hPa | 0 mm | - | 0 W/m² | - |
| 1777804238 | 9.44° C | 92% | 1022.6 hPa | 0 mm | - | 0 W/m² | - |
| 1777803338 | 8.89° C | 91% | 1022.7 hPa | 0 mm | - | 0 W/m² | - |
| 1777800920 | 8.89° C | 90% | 1022.4 hPa | 0 mm | - | 0 W/m² | - |
| 1777800019 | 8.89° C | 89% | 1022.2 hPa | 0 mm | - | 0 W/m² | - |
| 1777796720 | 10° C | 86% | 1021.8 hPa | 0 mm | - | 0 W/m² | - |
| 1777796419 | 10° C | 85% | 1021.8 hPa | 0 mm | - | 0 W/m² | - |
| 1777796144 | 10° C | 85% | 1021.8 hPa | 0 mm | - | 0 W/m² | - |
| 1777793439 | 10.56° C | 83% | 1021.4 hPa | 0 mm | - | 0 W/m² | - |
| 1777792545 | 11.11° C | 82% | 1021.3 hPa | 0 mm | - | 0 W/m² | - |
| 1777791020 | 11.67° C | 79% | 1021.2 hPa | 0 mm | - | 0 W/m² | - |
| 1777790738 | 11.67° C | 79% | 1021.2 hPa | 0 mm | - | 0 W/m² | - |
| 1777790120 | 12.22° C | 78% | 1021.1 hPa | 0 mm | - | 0 W/m² | - |
| 1777789219 | 12.22° C | 76% | 1021 hPa | 0 mm | - | 0 W/m² | - |
| 1777787720 | 12.78° C | 75% | 1021.3 hPa | 0 mm | - | 0 W/m² | - |
| 1777784119 | 13.89° C | 72% | 1021.1 hPa | 0 mm | - | 0 W/m² | - |
| 1777782922 | 13.89° C | 71% | 1021 hPa | 0 mm | - | 0 W/m² | - |
* Rain latest hour (hover to see other rain measurements)
** Current wind speed in m/s (hover to see current wind gust speed)